Terminal Aerodrome Forecast
Issued by NWS

Home | Current Version | Previous Version | Text Only | Print | Product List | Glossary On
Versions: 1 2 3 4 5 6 7 8 9 10 11 12 13 14 15 16 17 18 19 20 21 22 23 24 25 26 27 28 29 30 31 32 33 34 35 36 37 38 39 40 41 42 43 44 45
443
FTUS46 KEKA 200205 AAA
TAFACV
TAF AMD
KACV 200205Z 2002/2024 33012KT P6SM FEW020
     FM200600 09003KT P6SM OVC015
     FM201200 VRB03KT 6SM BR OVC010
     FM201800 32011KT P6SM SCT015=

USA.gov is the U.S. government's official web portal to all federal, state and local government web resources and services.